createdAt,value
2022-12-27T00:02:44.530Z,99726.37
2022-12-27T00:06:46.472Z,99720.58
2022-12-27T00:10:48.379Z,99722.83
2022-12-27T00:14:50.309Z,99722.39
2022-12-27T00:18:52.253Z,99711.48
2022-12-27T00:22:54.284Z,99709.48
2022-12-27T00:26:56.628Z,99716.40
2022-12-27T00:31:00.793Z,99723.89
2022-12-27T00:35:03.171Z,99730.80
2022-12-27T00:39:05.156Z,99727.71
2022-12-27T00:43:07.500Z,99731.33
2022-12-27T00:47:10.162Z,99740.06
2022-12-27T00:51:18.098Z,99739.05
2022-12-27T00:55:20.314Z,99716.15
2022-12-27T00:59:22.240Z,99688.39
2022-12-27T01:03:24.145Z,99695.40
2022-12-27T01:07:26.079Z,99706.05
2022-12-27T01:11:30.629Z,99716.58
2022-12-27T01:15:32.456Z,99720.80
2022-12-27T01:19:38.311Z,99705.08
2022-12-27T01:23:40.699Z,99702.89
2022-12-27T01:27:42.594Z,99692.08
2022-12-27T01:31:45.516Z,99704.46
2022-12-27T01:35:47.620Z,99706.98
2022-12-27T01:39:49.488Z,99709.14
2022-12-27T01:43:51.389Z,99715.88
2022-12-27T01:47:53.257Z,99703.63
2022-12-27T01:51:55.433Z,99700.21
2022-12-27T01:56:03.614Z,99698.08
2022-12-27T02:00:06.364Z,99686.36
2022-12-27T02:04:14.734Z,99685.48
2022-12-27T02:08:36.684Z,99691.60
2022-12-27T02:12:38.764Z,99687.73
2022-12-27T02:16:40.946Z,99688.71
2022-12-27T02:21:13.529Z,99688.09
2022-12-27T02:25:37.264Z,99681.96
2022-12-27T02:30:07.775Z,99683.61
2022-12-27T02:34:25.961Z,99682.14
2022-12-27T02:38:32.839Z,99684.71
2022-12-27T02:42:53.411Z,99689.64
2022-12-27T02:47:15.431Z,99694.71
2022-12-27T02:52:07.952Z,99695.91
2022-12-27T02:56:41.363Z,99687.05
2022-12-27T03:01:14.044Z,99682.58
2022-12-27T03:06:17.609Z,99682.56
2022-12-27T03:11:04.634Z,99682.11
2022-12-27T03:15:53.083Z,99685.56
2022-12-27T03:20:18.676Z,99688.27
2022-12-27T03:24:46.343Z,99685.89
2022-12-27T03:29:08.325Z,99682.71
2022-12-27T03:33:13.057Z,99687.36
2022-12-27T03:37:39.534Z,99689.14
2022-12-27T03:42:12.198Z,99689.47
2022-12-27T03:46:34.995Z,99691.79
2022-12-27T03:50:54.268Z,99686.79
2022-12-27T03:54:57.429Z,99689.51
2022-12-27T03:59:01.964Z,99691.19
2022-12-27T04:03:04.319Z,99699.56
2022-12-27T04:07:06.481Z,99699.77
2022-12-27T04:11:27.031Z,99706.08
2022-12-27T04:15:48.711Z,99714.73
2022-12-27T04:20:09.349Z,99725.57
2022-12-27T04:24:29.969Z,99744.13
2022-12-27T04:28:50.557Z,99770.66
2022-12-27T04:33:11.239Z,99775.89
2022-12-27T04:37:16.268Z,99795.95
2022-12-27T04:41:36.554Z,99798.70
2022-12-27T04:45:57.189Z,99836.61
2022-12-27T04:50:18.272Z,99852.52
2022-12-27T04:54:41.303Z,99864.00
2022-12-27T04:59:03.122Z,99877.36
2022-12-27T05:03:08.822Z,99898.27
2022-12-27T05:07:32.236Z,99901.70
2022-12-27T05:11:52.768Z,99903.39
2022-12-27T05:15:54.771Z,99908.05
2022-12-27T05:19:56.630Z,99908.79
2022-12-27T05:24:16.951Z,99912.01
2022-12-27T05:28:18.801Z,99917.84
2022-12-27T05:32:20.666Z,99925.34
2022-12-27T05:36:24.928Z,99936.51
2022-12-27T05:40:27.487Z,99950.47
2022-12-27T05:44:29.386Z,99958.93
2022-12-27T05:48:31.792Z,99971.79
2022-12-27T05:52:39.134Z,99980.20
2022-12-27T05:56:42.801Z,99985.89
2022-12-27T06:00:44.662Z,99994.36
2022-12-27T06:04:46.497Z,100000.45
2022-12-27T06:08:48.403Z,100009.29
2022-12-27T06:12:50.241Z,100018.69
2022-12-27T06:16:52.152Z,100015.56
2022-12-27T06:20:54.046Z,100019.14
2022-12-27T06:24:56.005Z,100024.04
2022-12-27T06:28:58.586Z,100023.48
2022-12-27T06:33:00.474Z,100041.52
2022-12-27T06:37:02.364Z,100059.96
2022-12-27T06:41:07.100Z,100073.42
2022-12-27T06:45:09.628Z,100093.25
2022-12-27T06:49:11.595Z,100106.18
2022-12-27T06:53:14.003Z,100116.38
2022-12-27T06:57:15.899Z,100121.34
2022-12-27T07:01:21.159Z,100131.20
2022-12-27T07:05:23.091Z,100132.27
2022-12-27T07:09:25.066Z,100143.92
2022-12-27T07:13:27.192Z,100151.54
2022-12-27T07:17:29.128Z,100160.05
2022-12-27T07:21:31.074Z,100168.08
2022-12-27T07:25:32.974Z,100159.46
2022-12-27T07:29:35.754Z,100163.46
2022-12-27T07:33:40.450Z,100169.91
2022-12-27T07:37:42.612Z,100178.13
2022-12-27T07:41:45.515Z,100193.66
2022-12-27T07:45:48.276Z,100195.92
2022-12-27T07:49:50.147Z,100203.00
2022-12-27T07:53:52.780Z,100203.40
2022-12-27T07:57:54.656Z,100212.03
2022-12-27T08:02:05.810Z,100220.33
2022-12-27T08:06:19.325Z,100222.61
2022-12-27T08:10:21.190Z,100229.92
2022-12-27T08:14:23.038Z,100236.50
2022-12-27T08:18:25.272Z,100243.89
2022-12-27T08:22:27.318Z,100248.06
2022-12-27T08:26:29.188Z,100253.45
2022-12-27T08:30:32.085Z,100258.60
2022-12-27T08:34:33.963Z,100260.58
2022-12-27T08:38:35.856Z,100262.01
2022-12-27T08:42:37.748Z,100260.77
2022-12-27T08:46:39.720Z,100259.57
2022-12-27T08:50:41.801Z,100266.29
2022-12-27T08:54:43.686Z,100261.67
2022-12-27T08:58:48.534Z,100266.16
2022-12-27T09:02:50.503Z,100269.69
2022-12-27T09:06:52.709Z,100277.48
2022-12-27T09:10:54.598Z,100288.64
2022-12-27T09:14:58.619Z,100286.10
2022-12-27T09:19:01.570Z,100294.60
2022-12-27T09:23:03.491Z,100303.66
2022-12-27T09:27:07.636Z,100306.52
2022-12-27T09:31:11.374Z,100304.04
2022-12-27T09:35:13.618Z,100306.14
2022-12-27T09:39:16.713Z,100304.79
2022-12-27T09:43:27.403Z,100309.38
2022-12-27T09:47:41.374Z,100311.77
2022-12-27T09:51:51.709Z,100315.23
2022-12-27T09:55:57.463Z,100328.20
2022-12-27T10:00:04.967Z,100331.02
2022-12-27T10:04:13.327Z,100332.79
2022-12-27T10:08:53.447Z,100343.61
2022-12-27T10:12:58.438Z,100349.66
2022-12-27T10:17:34.355Z,100350.48
2022-12-27T10:21:48.518Z,100352.69
2022-12-27T10:25:58.109Z,100352.89
2022-12-27T10:30:02.849Z,100353.20
2022-12-27T10:34:10.376Z,100355.31
2022-12-27T10:38:12.671Z,100357.79
2022-12-27T10:42:37.935Z,100362.30
2022-12-27T10:46:43.802Z,100362.11
2022-12-27T10:50:56.393Z,100360.51
2022-12-27T10:54:58.333Z,100358.10
2022-12-27T10:59:18.760Z,100357.52
2022-12-27T11:03:22.320Z,100360.67
2022-12-27T11:07:32.568Z,100364.33
2022-12-27T11:11:34.502Z,100370.20
2022-12-27T11:15:40.255Z,100369.39
2022-12-27T11:19:47.258Z,100374.46
2022-12-27T11:23:54.192Z,100375.72
2022-12-27T11:28:03.712Z,100380.08
2022-12-27T11:32:08.070Z,100374.89
2022-12-27T11:36:12.444Z,100375.19
2022-12-27T11:40:35.376Z,100375.71
2022-12-27T11:44:44.857Z,100375.61
2022-12-27T11:48:54.789Z,100388.30
2022-12-27T11:53:34.669Z,100392.08
2022-12-27T11:57:45.677Z,100401.23
2022-12-27T12:01:54.297Z,100411.02
2022-12-27T12:05:56.287Z,100407.85
2022-12-27T12:10:22.914Z,100415.73
2022-12-27T12:15:12.875Z,100423.73
2022-12-27T12:19:33.562Z,100430.10
2022-12-27T12:23:47.569Z,100430.05
2022-12-27T12:28:01.505Z,100429.98
2022-12-27T12:32:09.338Z,100431.68
2022-12-27T12:36:11.172Z,100434.98
2022-12-27T12:40:25.427Z,100436.54
2022-12-27T12:44:46.071Z,100435.38
2022-12-27T12:49:15.625Z,100440.27
2022-12-27T12:53:42.747Z,100451.42
2022-12-27T12:57:56.617Z,100459.55
2022-12-27T13:02:17.483Z,100452.02
2022-12-27T13:06:44.621Z,100457.88
2022-12-27T13:11:08.664Z,100456.59
2022-12-27T13:15:19.960Z,100461.14
2022-12-27T13:19:37.307Z,100465.23
2022-12-27T13:24:17.235Z,100463.80
2022-12-27T13:28:43.035Z,100464.93
2022-12-27T13:32:57.093Z,100477.94
2022-12-27T13:37:19.616Z,100477.58
2022-12-27T13:41:46.387Z,100475.98
2022-12-27T13:46:07.000Z,100482.50
2022-12-27T13:50:24.109Z,100484.88
2022-12-27T13:54:31.879Z,100488.38
2022-12-27T13:58:36.664Z,100489.05
2022-12-27T14:03:07.208Z,100494.95
2022-12-27T14:07:36.917Z,100493.02
2022-12-27T14:11:47.703Z,100492.30
2022-12-27T14:16:04.640Z,100498.15
2022-12-27T14:20:42.117Z,100497.35
2022-12-27T14:25:02.303Z,100504.14
2022-12-27T14:29:41.822Z,100514.25
2022-12-27T14:34:08.029Z,100520.27
2022-12-27T14:38:18.643Z,100521.36
2022-12-27T14:42:50.954Z,100527.41
2022-12-27T14:47:23.804Z,100542.62
2022-12-27T14:52:12.430Z,100548.55
2022-12-27T14:56:18.007Z,100543.67
2022-12-27T15:00:25.044Z,100546.94
2022-12-27T15:04:44.031Z,100548.27
2022-12-27T15:09:01.373Z,100555.06
2022-12-27T15:13:13.180Z,100559.52
2022-12-27T15:17:21.352Z,100560.39
2022-12-27T15:21:44.256Z,100556.66
2022-12-27T15:26:01.112Z,100554.81
2022-12-27T15:30:12.181Z,100551.81
2022-12-27T15:34:39.715Z,100555.39
2022-12-27T15:38:54.731Z,100557.11
2022-12-27T15:43:00.098Z,100556.45
2022-12-27T15:47:10.891Z,100561.66
2022-12-27T15:51:41.389Z,100564.96
2022-12-27T15:55:46.385Z,100565.27
2022-12-27T15:59:54.858Z,100564.72
2022-12-27T16:03:58.052Z,100562.86
2022-12-27T16:08:03.214Z,100562.88
2022-12-27T16:12:30.730Z,100568.91
2022-12-27T16:16:53.440Z,100586.21
2022-12-27T16:21:01.170Z,100592.06
2022-12-27T16:25:24.138Z,100585.14
2022-12-27T16:29:33.151Z,100590.45
2022-12-27T16:33:44.047Z,100589.30
2022-12-27T16:37:53.198Z,100592.75
2022-12-27T16:41:57.760Z,100596.30
2022-12-27T16:46:17.924Z,100596.48
2022-12-27T16:50:41.405Z,100592.39
2022-12-27T16:55:08.620Z,100594.66
2022-12-27T16:59:48.113Z,100594.06
2022-12-27T17:03:50.124Z,100594.58
2022-12-27T17:07:51.973Z,100596.88
2022-12-27T17:11:54.687Z,100599.73
2022-12-27T17:16:19.541Z,100595.29
2022-12-27T17:20:22.261Z,100602.46
2022-12-27T17:24:24.480Z,100604.84
2022-12-27T17:28:35.213Z,100608.39
2022-12-27T17:33:04.257Z,100609.81
2022-12-27T17:37:56.899Z,100608.59
2022-12-27T17:42:30.816Z,100608.40
2022-12-27T17:46:54.706Z,100603.54
2022-12-27T17:51:11.787Z,100606.26
2022-12-27T17:55:44.743Z,100607.77
2022-12-27T17:59:50.081Z,100615.84
2022-12-27T18:03:51.932Z,100622.23
2022-12-27T18:08:03.466Z,100620.83
2022-12-27T18:12:22.181Z,100616.92
2022-12-27T18:16:35.142Z,100612.80
2022-12-27T18:20:38.671Z,100610.38
2022-12-27T18:24:41.556Z,100617.36
2022-12-27T18:28:43.702Z,100616.30
2022-12-27T18:32:45.628Z,100616.77
2022-12-27T18:37:01.870Z,100619.86
2022-12-27T18:41:09.362Z,100626.11
2022-12-27T18:45:25.874Z,100627.77
2022-12-27T18:49:33.386Z,100629.41
2022-12-27T18:53:38.011Z,100636.42
2022-12-27T18:57:41.572Z,100635.91
2022-12-27T19:01:45.574Z,100640.59
2022-12-27T19:06:12.390Z,100639.82
2022-12-27T19:10:20.236Z,100643.77
2022-12-27T19:14:23.598Z,100648.15
2022-12-27T19:18:36.540Z,100651.13
2022-12-27T19:22:47.894Z,100657.27
2022-12-27T19:26:50.987Z,100660.35
2022-12-27T19:31:17.586Z,100653.52
2022-12-27T19:35:19.755Z,100656.16
2022-12-27T19:39:28.512Z,100662.45
2022-12-27T19:43:38.695Z,100666.27
2022-12-27T19:47:40.637Z,100667.96
2022-12-27T19:51:44.097Z,100675.26
2022-12-27T19:55:46.334Z,100668.36
2022-12-27T19:59:48.215Z,100677.56
2022-12-27T20:03:50.082Z,100686.45
2022-12-27T20:07:52.354Z,100689.67
2022-12-27T20:11:54.342Z,100702.54
2022-12-27T20:15:58.510Z,100702.55
2022-12-27T20:20:00.660Z,100708.31
2022-12-27T20:24:02.842Z,100714.88
2022-12-27T20:28:05.613Z,100717.66
2022-12-27T20:32:07.713Z,100719.22
2022-12-27T20:36:10.880Z,100726.84
2022-12-27T20:40:12.833Z,100726.55
2022-12-27T20:44:14.752Z,100731.91
2022-12-27T20:48:16.606Z,100736.66
2022-12-27T20:52:18.565Z,100740.29
2022-12-27T20:56:20.497Z,100746.48
2022-12-27T21:00:22.495Z,100745.66
2022-12-27T21:04:26.407Z,100746.86
2022-12-27T21:08:28.420Z,100755.82
2022-12-27T21:12:31.828Z,100759.98
2022-12-27T21:16:35.229Z,100760.65
2022-12-27T21:20:37.130Z,100769.33
2022-12-27T21:24:39.144Z,100772.14
2022-12-27T21:28:42.071Z,100778.60
2022-12-27T21:32:44.235Z,100784.06
2022-12-27T21:36:46.583Z,100788.86
2022-12-27T21:40:58.663Z,100787.98
2022-12-27T21:45:00.536Z,100793.97
2022-12-27T21:49:08.696Z,100788.19
2022-12-27T21:53:10.730Z,100790.30
2022-12-27T21:57:12.692Z,100787.27
2022-12-27T22:01:18.033Z,100795.02
2022-12-27T22:05:20.122Z,100796.11
2022-12-27T22:09:21.973Z,100799.46
2022-12-27T22:13:24.391Z,100798.77
2022-12-27T22:17:26.315Z,100798.53
2022-12-27T22:21:33.046Z,100800.06
2022-12-27T22:25:34.942Z,100800.17
2022-12-27T22:29:36.834Z,100798.80
2022-12-27T22:33:39.265Z,100800.48
2022-12-27T22:37:41.124Z,100802.27
2022-12-27T22:41:43.652Z,100804.42
2022-12-27T22:45:50.338Z,100805.08
2022-12-27T22:49:55.376Z,100806.63
2022-12-27T22:53:58.436Z,100808.70
2022-12-27T22:58:00.308Z,100808.11
2022-12-27T23:02:02.296Z,100808.76
2022-12-27T23:06:04.486Z,100807.66
2022-12-27T23:10:06.865Z,100805.60
2022-12-27T23:14:14.945Z,100799.64
2022-12-27T23:18:16.796Z,100802.36
2022-12-27T23:22:18.718Z,100800.79
2022-12-27T23:26:22.369Z,100799.64
2022-12-27T23:30:24.281Z,100798.14
2022-12-27T23:34:28.596Z,100801.30
2022-12-27T23:38:31.128Z,100798.39
2022-12-27T23:42:33.052Z,100801.26
2022-12-27T23:46:35.576Z,100793.48
2022-12-27T23:50:37.492Z,100789.58
2022-12-27T23:54:39.347Z,100785.02
2022-12-27T23:58:41.714Z,100783.52
